NTAA/PPT METAR and TAF weather

Enter ICAO airport designator
Station Type Date Time Source
NTAA METAR 2023/02/04 02:30 UTC NOAA

NTAA 040230Z 09006KT 040V140 9999 FEW018CB SCT056 BKN130 29/17 Q1012 WS ALL RWY TEMPO 04030G40KT 1000 +TSRA SCT008 SCT013CB BKN035


Station Type Date Time Source
NTAA Decoded METAR 2023/02/04 02:30 UTC NOAA

Tahiti-Faaa, French Polynesia (NTAA) 17-33S 149-37W 2M
Feb 03, 2023 - 09:30 PM EST / 2023.02.04 0230 UTC
Wind: from the E (090 degrees) at 7 MPH (6 KT) (direction variable):0
Visibility: greater than 7 mile(s):0
Sky conditions: mostly cloudy
Weather: Cumulonimbus clouds observed
Temperature: 84 F (29 C)
Dew Point: 62 F (17 C)
Relative Humidity: 48%
Pressure (altimeter): 29.88 in. Hg (1012 hPa)
ob: NTAA 040230Z 09006KT 040V140 9999 FEW018CB SCT056 BKN130 29/17 Q1012 WS ALL RWY TEMPO 04030G40KT 1000 +TSRA SCT008 SCT013CB BKN035
cycle: 2

Station Type Date Time Source
NTAA TAF 2023/02/03 18:53 UTC NOAA

TAF
AMD NTAA 031748Z 0318/0424 05010KT 9999 FEW016CB SCT020 SCT050
TEMPO 0318/0424 04020G30KT 2000 SHRA SCT008 SCT013CB BKN035 PROB40
TEMPO 0318/0424 04030G40KT 0800 TSRA SCT008 BKN013CB

Example: see airport list